sensor_id;sensor_type;location;lat;lon;timestamp;temperature;humidity
7240;DHT22;3661;53.288;10.458;2024-01-15T00:01:42;6.90;99.90
7240;DHT22;3661;53.288;10.458;2024-01-15T00:04:15;6.80;99.90
7240;DHT22;3661;53.288;10.458;2024-01-15T00:06:47;6.70;99.90
7240;DHT22;3661;53.288;10.458;2024-01-15T00:09:19;6.60;99.90
7240;DHT22;3661;53.288;10.458;2024-01-15T00:11:53;6.40;99.90
7240;DHT22;3661;53.288;10.458;2024-01-15T00:14:25;6.30;99.90
7240;DHT22;3661;53.288;10.458;2024-01-15T00:16:57;6.20;99.90
7240;DHT22;3661;53.288;10.458;2024-01-15T00:19:29;6.10;99.90
7240;DHT22;3661;53.288;10.458;2024-01-15T00:22:03;6.00;99.90
7240;DHT22;3661;53.288;10.458;2024-01-15T00:24:38;5.90;99.90
7240;DHT22;3661;53.288;10.458;2024-01-15T00:27:11;5.80;99.90
7240;DHT22;3661;53.288;10.458;2024-01-15T00:29:43;5.70;99.90
7240;DHT22;3661;53.288;10.458;2024-01-15T00:32:15;5.60;99.90
7240;DHT22;3661;53.288;10.458;2024-01-15T00:34:48;5.50;99.90
7240;DHT22;3661;53.288;10.458;2024-01-15T00:37:20;5.40;99.90
7240;DHT22;3661;53.288;10.458;2024-01-15T00:39:52;5.30;99.90
7240;DHT22;3661;53.288;10.458;2024-01-15T00:42:29;5.20;99.90
7240;DHT22;3661;53.288;10.458;2024-01-15T00:45:01;5.20;99.90
7240;DHT22;3661;53.288;10.458;2024-01-15T00:47:33;5.10;99.90
7240;DHT22;3661;53.288;10.458;2024-01-15T00:50:06;5.00;99.90
7240;DHT22;3661;53.288;10.458;2024-01-15T00:52:39;4.90;99.90
7240;DHT22;3661;53.288;10.458;2024-01-15T00:55:11;4.90;99.90
7240;DHT22;3661;53.288;10.458;2024-01-15T00:57:44;4.80;99.90
7240;DHT22;3661;53.288;10.458;2024-01-15T01:00:16;4.80;99.90
7240;DHT22;3661;53.288;10.458;2024-01-15T01:02:50;4.70;99.90
7240;DHT22;3661;53.288;10.458;2024-01-15T01:05:22;4.70;99.90
7240;DHT22;3661;53.288;10.458;2024-01-15T01:07:55;4.60;99.90
7240;DHT22;3661;53.288;10.458;2024-01-15T01:10:27;4.50;99.90
7240;DHT22;3661;53.288;10.458;2024-01-15T01:13:00;4.50;99.90
7240;DHT22;3661;53.288;10.458;2024-01-15T01:15:32;4.40;99.90
7240;DHT22;3661;53.288;10.458;2024-01-15T01:18:05;4.40;99.90
7240;DHT22;3661;53.288;10.458;2024-01-15T01:20:37;4.30;99.90
7240;DHT22;3661;53.288;10.458;2024-01-15T01:23:09;4.30;99.90
7240;DHT22;3661;53.288;10.458;2024-01-15T01:25:41;4.20;99.90
7240;DHT22;3661;53.288;10.458;2024-01-15T01:28:14;4.20;99.90
7240;DHT22;3661;53.288;10.458;2024-01-15T01:30:46;4.10;99.90
7240;DHT22;3661;53.288;10.458;2024-01-15T01:33:18;4.10;99.90
7240;DHT22;3661;53.288;10.458;2024-01-15T01:35:51;4.10;99.90
7240;DHT22;3661;53.288;10.458;2024-01-15T01:38:23;4.00;99.90
7240;DHT22;3661;53.288;10.458;2024-01-15T01:40:55;4.00;99.90
7240;DHT22;3661;53.288;10.458;2024-01-15T01:43:29;3.90;99.90
7240;DHT22;3661;53.288;10.458;2024-01-15T01:46:01;3.90;99.90
7240;DHT22;3661;53.288;10.458;2024-01-15T01:48:33;3.90;99.90
7240;DHT22;3661;53.288;10.458;2024-01-15T01:51:06;3.80;99.90
7240;DHT22;3661;53.288;10.458;2024-01-15T01:53:39;3.80;99.90
7240;DHT22;3661;53.288;10.458;2024-01-15T01:56:11;3.70;99.90
7240;DHT22;3661;53.288;10.458;2024-01-15T01:58:45;3.70;99.90
7240;DHT22;3661;53.288;10.458;2024-01-15T02:01:18;3.70;99.90
7240;DHT22;3661;53.288;10.458;2024-01-15T02:03:51;3.70;99.90
7240;DHT22;3661;53.288;10.458;2024-01-15T02:06:23;3.60;99.90
7240;DHT22;3661;53.288;10.458;2024-01-15T02:08:55;3.60;99.90
7240;DHT22;3661;53.288;10.458;2024-01-15T02:11:28;3.60;99.90
7240;DHT22;3661;53.288;10.458;2024-01-15T02:14:01;3.50;99.90
7240;DHT22;3661;53.288;10.458;2024-01-15T02:16:34;3.50;99.90
7240;DHT22;3661;53.288;10.458;2024-01-15T02:19:06;3.50;99.90
7240;DHT22;3661;53.288;10.458;2024-01-15T02:21:39;3.40;99.90
7240;DHT22;3661;53.288;10.458;2024-01-15T02:24:12;3.40;99.90
7240;DHT22;3661;53.288;10.458;2024-01-15T02:26:44;3.40;99.90
7240;DHT22;3661;53.288;10.458;2024-01-15T02:29:17;3.40;99.90
7240;DHT22;3661;53.288;10.458;2024-01-15T02:31:49;3.30;99.90
7240;DHT22;3661;53.288;10.458;2024-01-15T02:34:24;3.30;99.90
7240;DHT22;3661;53.288;10.458;2024-01-15T02:36:56;3.30;99.90
7240;DHT22;3661;53.288;10.458;2024-01-15T02:39:30;3.20;99.90
7240;DHT22;3661;53.288;10.458;2024-01-15T02:42:03;3.20;99.90
7240;DHT22;3661;53.288;10.458;2024-01-15T02:44:35;3.20;99.90
7240;DHT22;3661;53.288;10.458;2024-01-15T02:47:07;3.20;99.90
7240;DHT22;3661;53.288;10.458;2024-01-15T02:49:39;3.10;99.90
7240;DHT22;3661;53.288;10.458;2024-01-15T02:52:11;3.10;99.90
7240;DHT22;3661;53.288;10.458;2024-01-15T02:54:44;3.10;99.90
7240;DHT22;3661;53.288;10.458;2024-01-15T02:57:16;3.10;99.90
7240;DHT22;3661;53.288;10.458;2024-01-15T02:59:49;3.00;99.90
7240;DHT22;3661;53.288;10.458;2024-01-15T03:02:22;3.00;99.90
7240;DHT22;3661;53.288;10.458;2024-01-15T03:04:54;3.00;99.90
7240;DHT22;3661;53.288;10.458;2024-01-15T03:07:28;3.00;99.90
7240;DHT22;3661;53.288;10.458;2024-01-15T03:10:02;3.00;99.90
7240;DHT22;3661;53.288;10.458;2024-01-15T03:12:34;2.90;99.90
7240;DHT22;3661;53.288;10.458;2024-01-15T03:15:06;2.90;99.90
7240;DHT22;3661;53.288;10.458;2024-01-15T03:17:38;2.90;99.90
7240;DHT22;3661;53.288;10.458;2024-01-15T03:20:11;2.90;99.90
7240;DHT22;3661;53.288;10.458;2024-01-15T03:22:43;2.90;99.90
7240;DHT22;3661;53.288;10.458;2024-01-15T03:25:17;2.90;99.90
7240;DHT22;3661;53.288;10.458;2024-01-15T03:27:49;2.80;99.90
7240;DHT22;3661;53.288;10.458;2024-01-15T03:30:21;2.80;99.90
7240;DHT22;3661;53.288;10.458;2024-01-15T03:32:53;2.80;99.90
7240;DHT22;3661;53.288;10.458;2024-01-15T03:35:25;2.80;99.90
7240;DHT22;3661;53.288;10.458;2024-01-15T03:38:00;2.80;99.90
7240;DHT22;3661;53.288;10.458;2024-01-15T03:40:33;2.80;99.90
7240;DHT22;3661;53.288;10.458;2024-01-15T03:43:05;2.70;99.90
7240;DHT22;3661;53.288;10.458;2024-01-15T03:45:37;2.70;99.90
7240;DHT22;3661;53.288;10.458;2024-01-15T03:48:10;2.70;99.90
7240;DHT22;3661;53.288;10.458;2024-01-15T03:50:42;2.70;99.90
7240;DHT22;3661;53.288;10.458;2024-01-15T03:53:14;2.70;99.90
7240;DHT22;3661;53.288;10.458;2024-01-15T03:55:47;2.70;99.90
7240;DHT22;3661;53.288;10.458;2024-01-15T03:58:19;2.60;99.90
7240;DHT22;3661;53.288;10.458;2024-01-15T04:00:52;2.70;99.90
7240;DHT22;3661;53.288;10.458;2024-01-15T04:03:24;2.60;99.90
7240;DHT22;3661;53.288;10.458;2024-01-15T04:05:56;2.60;99.90
7240;DHT22;3661;53.288;10.458;2024-01-15T04:08:28;2.60;99.90
7240;DHT22;3661;53.288;10.458;2024-01-15T04:11:01;2.60;99.90
7240;DHT22;3661;53.288;10.458;2024-01-15T04:13:34;2.50;99.90
7240;DHT22;3661;53.288;10.458;2024-01-15T04:16:06;2.50;99.90
7240;DHT22;3661;53.288;10.458;2024-01-15T04:18:38;2.50;99.90
7240;DHT22;3661;53.288;10.458;2024-01-15T04:21:10;2.50;99.90
7240;DHT22;3661;53.288;10.458;2024-01-15T04:23:42;2.50;99.90
7240;DHT22;3661;53.288;10.458;2024-01-15T04:26:18;2.50;99.90
7240;DHT22;3661;53.288;10.458;2024-01-15T04:28:50;2.50;99.90
7240;DHT22;3661;53.288;10.458;2024-01-15T04:31:23;2.40;99.90
7240;DHT22;3661;53.288;10.458;2024-01-15T04:33:58;2.40;99.90
7240;DHT22;3661;53.288;10.458;2024-01-15T04:36:30;2.40;99.90
7240;DHT22;3661;53.288;10.458;2024-01-15T04:39:02;2.40;99.90
7240;DHT22;3661;53.288;10.458;2024-01-15T04:41:36;2.40;99.90
7240;DHT22;3661;53.288;10.458;2024-01-15T04:44:08;2.40;99.90
7240;DHT22;3661;53.288;10.458;2024-01-15T04:46:41;2.30;99.90
7240;DHT22;3661;53.288;10.458;2024-01-15T04:49:14;2.30;99.90
7240;DHT22;3661;53.288;10.458;2024-01-15T04:51:46;2.30;99.90
7240;DHT22;3661;53.288;10.458;2024-01-15T04:54:18;2.30;99.90
7240;DHT22;3661;53.288;10.458;2024-01-15T04:56:52;2.30;99.90
7240;DHT22;3661;53.288;10.458;2024-01-15T04:59:24;2.30;99.90
7240;DHT22;3661;53.288;10.458;2024-01-15T05:01:56;2.30;99.90
7240;DHT22;3661;53.288;10.458;2024-01-15T05:04:28;2.30;99.90
7240;DHT22;3661;53.288;10.458;2024-01-15T05:07:01;2.20;99.90
7240;DHT22;3661;53.288;10.458;2024-01-15T05:09:33;2.20;99.90
7240;DHT22;3661;53.288;10.458;2024-01-15T05:12:07;2.20;99.90
7240;DHT22;3661;53.288;10.458;2024-01-15T05:14:39;2.20;99.90
7240;DHT22;3661;53.288;10.458;2024-01-15T05:17:14;2.20;99.90
7240;DHT22;3661;53.288;10.458;2024-01-15T05:19:46;2.20;99.90
7240;DHT22;3661;53.288;10.458;2024-01-15T05:22:18;2.20;99.90
7240;DHT22;3661;53.288;10.458;2024-01-15T05:24:51;2.20;99.90
7240;DHT22;3661;53.288;10.458;2024-01-15T05:27:25;2.10;99.90
7240;DHT22;3661;53.288;10.458;2024-01-15T05:30:00;2.10;99.90
7240;DHT22;3661;53.288;10.458;2024-01-15T05:32:32;2.10;99.90
7240;DHT22;3661;53.288;10.458;2024-01-15T05:35:05;2.10;99.90
7240;DHT22;3661;53.288;10.458;2024-01-15T05:37:38;2.10;99.90
7240;DHT22;3661;53.288;10.458;2024-01-15T05:40:11;2.10;99.90
7240;DHT22;3661;53.288;10.458;2024-01-15T05:42:44;2.10;99.90
7240;DHT22;3661;53.288;10.458;2024-01-15T05:45:16;2.10;99.90
7240;DHT22;3661;53.288;10.458;2024-01-15T05:47:49;2.10;99.90
7240;DHT22;3661;53.288;10.458;2024-01-15T05:50:21;2.10;99.90
7240;DHT22;3661;53.288;10.458;2024-01-15T05:52:53;2.10;99.90
7240;DHT22;3661;53.288;10.458;2024-01-15T05:55:25;2.10;99.90
7240;DHT22;3661;53.288;10.458;2024-01-15T05:57:58;2.10;99.90
7240;DHT22;3661;53.288;10.458;2024-01-15T06:00:30;2.00;99.90
7240;DHT22;3661;53.288;10.458;2024-01-15T06:03:04;2.00;99.90
7240;DHT22;3661;53.288;10.458;2024-01-15T06:05:36;2.00;99.90
7240;DHT22;3661;53.288;10.458;2024-01-15T06:08:08;2.00;99.90
7240;DHT22;3661;53.288;10.458;2024-01-15T06:10:40;2.00;99.90
7240;DHT22;3661;53.288;10.458;2024-01-15T06:13:13;2.00;99.90
7240;DHT22;3661;53.288;10.458;2024-01-15T06:15:45;2.00;99.90
7240;DHT22;3661;53.288;10.458;2024-01-15T06:18:18;2.00;99.90
7240;DHT22;3661;53.288;10.458;2024-01-15T06:20:50;2.00;99.90
7240;DHT22;3661;53.288;10.458;2024-01-15T06:23:22;1.90;99.90
7240;DHT22;3661;53.288;10.458;2024-01-15T06:25:54;2.00;99.90
7240;DHT22;3661;53.288;10.458;2024-01-15T06:28:29;2.00;99.90
7240;DHT22;3661;53.288;10.458;2024-01-15T06:31:03;2.00;99.90
7240;DHT22;3661;53.288;10.458;2024-01-15T06:33:36;2.00;99.90
7240;DHT22;3661;53.288;10.458;2024-01-15T06:36:08;1.90;99.90
7240;DHT22;3661;53.288;10.458;2024-01-15T06:38:42;1.90;99.90
7240;DHT22;3661;53.288;10.458;2024-01-15T06:41:17;1.90;99.90
7240;DHT22;3661;53.288;10.458;2024-01-15T06:43:51;1.90;99.90
7240;DHT22;3661;53.288;10.458;2024-01-15T06:46:23;1.90;99.90
7240;DHT22;3661;53.288;10.458;2024-01-15T06:48:57;1.90;99.90
7240;DHT22;3661;53.288;10.458;2024-01-15T06:51:32;1.90;99.90
7240;DHT22;3661;53.288;10.458;2024-01-15T06:54:04;1.90;99.90
7240;DHT22;3661;53.288;10.458;2024-01-15T06:56:36;1.90;99.90
7240;DHT22;3661;53.288;10.458;2024-01-15T06:59:09;1.90;99.90
7240;DHT22;3661;53.288;10.458;2024-01-15T07:01:41;1.90;99.90
7240;DHT22;3661;53.288;10.458;2024-01-15T07:04:13;1.90;99.90
7240;DHT22;3661;53.288;10.458;2024-01-15T07:06:45;1.90;99.90
7240;DHT22;3661;53.288;10.458;2024-01-15T07:09:18;1.90;99.90
7240;DHT22;3661;53.288;10.458;2024-01-15T07:11:51;1.90;99.90
7240;DHT22;3661;53.288;10.458;2024-01-15T07:14:24;1.90;99.90
7240;DHT22;3661;53.288;10.458;2024-01-15T07:16:57;1.90;99.90
7240;DHT22;3661;53.288;10.458;2024-01-15T07:19:29;1.90;99.90
7240;DHT22;3661;53.288;10.458;2024-01-15T07:22:04;1.90;99.90
7240;DHT22;3661;53.288;10.458;2024-01-15T07:24:36;1.90;99.90
7240;DHT22;3661;53.288;10.458;2024-01-15T07:27:09;1.90;99.90
7240;DHT22;3661;53.288;10.458;2024-01-15T07:29:43;1.90;99.90
7240;DHT22;3661;53.288;10.458;2024-01-15T07:32:15;1.90;99.90
7240;DHT22;3661;53.288;10.458;2024-01-15T07:34:52;1.90;99.90
7240;DHT22;3661;53.288;10.458;2024-01-15T07:37:27;1.90;99.90
7240;DHT22;3661;53.288;10.458;2024-01-15T07:39:59;1.90;99.90
7240;DHT22;3661;53.288;10.458;2024-01-15T07:42:31;1.90;99.90
7240;DHT22;3661;53.288;10.458;2024-01-15T07:45:05;1.90;99.90
7240;DHT22;3661;53.288;10.458;2024-01-15T07:47:37;1.90;99.90
7240;DHT22;3661;53.288;10.458;2024-01-15T07:50:10;1.80;99.90
7240;DHT22;3661;53.288;10.458;2024-01-15T07:52:42;1.80;99.90
7240;DHT22;3661;53.288;10.458;2024-01-15T07:55:14;1.80;99.90
7240;DHT22;3661;53.288;10.458;2024-01-15T07:57:46;1.80;99.90
7240;DHT22;3661;53.288;10.458;2024-01-15T08:00:20;1.80;99.90
7240;DHT22;3661;53.288;10.458;2024-01-15T08:02:53;1.80;99.90
7240;DHT22;3661;53.288;10.458;2024-01-15T08:05:25;1.80;99.90
7240;DHT22;3661;53.288;10.458;2024-01-15T08:08:00;1.80;99.90
7240;DHT22;3661;53.288;10.458;2024-01-15T08:10:35;1.80;99.90
7240;DHT22;3661;53.288;10.458;2024-01-15T08:13:07;1.90;99.90
7240;DHT22;3661;53.288;10.458;2024-01-15T08:15:41;1.80;99.90
7240;DHT22;3661;53.288;10.458;2024-01-15T08:18:13;1.80;99.90
7240;DHT22;3661;53.288;10.458;2024-01-15T08:20:45;1.80;99.90
7240;DHT22;3661;53.288;10.458;2024-01-15T08:23:17;1.80;99.90
7240;DHT22;3661;53.288;10.458;2024-01-15T08:25:50;1.80;99.90
7240;DHT22;3661;53.288;10.458;2024-01-15T08:28:23;1.80;99.90
7240;DHT22;3661;53.288;10.458;2024-01-15T08:30:56;1.80;99.90
7240;DHT22;3661;53.288;10.458;2024-01-15T08:33:33;1.80;99.90
7240;DHT22;3661;53.288;10.458;2024-01-15T08:36:07;1.80;99.90
7240;DHT22;3661;53.288;10.458;2024-01-15T08:38:39;1.80;99.90
7240;DHT22;3661;53.288;10.458;2024-01-15T08:41:11;1.80;99.90
7240;DHT22;3661;53.288;10.458;2024-01-15T08:43:43;1.80;99.90
7240;DHT22;3661;53.288;10.458;2024-01-15T08:46:17;1.80;99.90
7240;DHT22;3661;53.288;10.458;2024-01-15T08:48:49;1.80;99.90
7240;DHT22;3661;53.288;10.458;2024-01-15T08:51:22;1.80;99.90
7240;DHT22;3661;53.288;10.458;2024-01-15T08:53:54;1.80;99.90
7240;DHT22;3661;53.288;10.458;2024-01-15T08:56:26;1.80;99.90
7240;DHT22;3661;53.288;10.458;2024-01-15T08:58:59;1.80;99.90
7240;DHT22;3661;53.288;10.458;2024-01-15T09:01:32;1.80;99.90
7240;DHT22;3661;53.288;10.458;2024-01-15T09:04:04;1.80;99.90
7240;DHT22;3661;53.288;10.458;2024-01-15T09:06:36;1.80;99.90
7240;DHT22;3661;53.288;10.458;2024-01-15T09:09:08;1.80;99.90
7240;DHT22;3661;53.288;10.458;2024-01-15T09:11:41;1.80;99.90
7240;DHT22;3661;53.288;10.458;2024-01-15T09:14:13;1.80;99.90
7240;DHT22;3661;53.288;10.458;2024-01-15T09:16:47;1.80;99.90
7240;DHT22;3661;53.288;10.458;2024-01-15T09:19:20;1.80;99.90
7240;DHT22;3661;53.288;10.458;2024-01-15T09:21:53;1.80;99.90
7240;DHT22;3661;53.288;10.458;2024-01-15T09:24:26;1.80;99.90
7240;DHT22;3661;53.288;10.458;2024-01-15T09:26:58;1.80;99.90
7240;DHT22;3661;53.288;10.458;2024-01-15T09:29:31;1.80;99.90
7240;DHT22;3661;53.288;10.458;2024-01-15T09:32:05;1.80;99.90
7240;DHT22;3661;53.288;10.458;2024-01-15T09:34:38;1.80;99.90
7240;DHT22;3661;53.288;10.458;2024-01-15T09:37:10;1.80;99.90
7240;DHT22;3661;53.288;10.458;2024-01-15T09:39:42;1.80;99.90
7240;DHT22;3661;53.288;10.458;2024-01-15T09:42:15;1.70;99.90
7240;DHT22;3661;53.288;10.458;2024-01-15T09:44:48;1.80;99.90
7240;DHT22;3661;53.288;10.458;2024-01-15T09:47:22;1.80;99.90
7240;DHT22;3661;53.288;10.458;2024-01-15T09:49:55;1.80;99.90
7240;DHT22;3661;53.288;10.458;2024-01-15T09:52:31;1.80;99.90
7240;DHT22;3661;53.288;10.458;2024-01-15T09:55:05;1.80;99.90
7240;DHT22;3661;53.288;10.458;2024-01-15T09:57:39;1.80;99.90
7240;DHT22;3661;53.288;10.458;2024-01-15T10:00:12;1.80;99.90
7240;DHT22;3661;53.288;10.458;2024-01-15T10:02:45;1.80;99.90
7240;DHT22;3661;53.288;10.458;2024-01-15T10:05:18;1.80;99.90
7240;DHT22;3661;53.288;10.458;2024-01-15T10:07:51;1.80;99.90
7240;DHT22;3661;53.288;10.458;2024-01-15T10:10:25;1.80;99.90
7240;DHT22;3661;53.288;10.458;2024-01-15T10:13:00;1.90;99.90
7240;DHT22;3661;53.288;10.458;2024-01-15T10:15:37;1.90;99.90
7240;DHT22;3661;53.288;10.458;2024-01-15T10:18:37;2.00;99.90
7240;DHT22;3661;53.288;10.458;2024-01-15T10:21:10;2.00;99.90
7240;DHT22;3661;53.288;10.458;2024-01-15T10:23:47;2.00;99.90
7240;DHT22;3661;53.288;10.458;2024-01-15T10:26:24;2.00;99.90
7240;DHT22;3661;53.288;10.458;2024-01-15T10:28:59;2.00;99.90
7240;DHT22;3661;53.288;10.458;2024-01-15T10:31:33;2.00;99.90
7240;DHT22;3661;53.288;10.458;2024-01-15T10:34:13;2.00;99.90
7240;DHT22;3661;53.288;10.458;2024-01-15T10:36:49;2.00;99.90
7240;DHT22;3661;53.288;10.458;2024-01-15T10:39:32;2.00;99.90
7240;DHT22;3661;53.288;10.458;2024-01-15T10:42:04;2.00;99.90
7240;DHT22;3661;53.288;10.458;2024-01-15T10:44:38;2.00;99.90
7240;DHT22;3661;53.288;10.458;2024-01-15T10:47:11;2.00;99.90
7240;DHT22;3661;53.288;10.458;2024-01-15T10:49:45;2.00;99.90
7240;DHT22;3661;53.288;10.458;2024-01-15T10:52:18;2.10;99.90
7240;DHT22;3661;53.288;10.458;2024-01-15T10:54:51;2.10;99.90
7240;DHT22;3661;53.288;10.458;2024-01-15T10:57:29;2.10;99.90
7240;DHT22;3661;53.288;10.458;2024-01-15T11:00:02;2.10;99.90
7240;DHT22;3661;53.288;10.458;2024-01-15T11:02:37;2.10;99.90
7240;DHT22;3661;53.288;10.458;2024-01-15T11:05:10;2.10;99.90
7240;DHT22;3661;53.288;10.458;2024-01-15T11:07:43;2.10;99.90
7240;DHT22;3661;53.288;10.458;2024-01-15T11:10:39;2.00;99.90
7240;DHT22;3661;53.288;10.458;2024-01-15T11:13:19;2.00;99.90
7240;DHT22;3661;53.288;10.458;2024-01-15T11:15:58;2.00;99.90
7240;DHT22;3661;53.288;10.458;2024-01-15T11:18:34;2.00;99.90
7240;DHT22;3661;53.288;10.458;2024-01-15T11:21:27;2.00;99.90
7240;DHT22;3661;53.288;10.458;2024-01-15T11:24:01;1.90;99.90
7240;DHT22;3661;53.288;10.458;2024-01-15T11:26:44;1.90;99.90
7240;DHT22;3661;53.288;10.458;2024-01-15T11:29:29;1.90;99.90
7240;DHT22;3661;53.288;10.458;2024-01-15T11:32:04;1.90;99.90
7240;DHT22;3661;53.288;10.458;2024-01-15T11:34:57;1.90;99.90
7240;DHT22;3661;53.288;10.458;2024-01-15T11:38:00;1.90;99.90
7240;DHT22;3661;53.288;10.458;2024-01-15T11:40:39;1.90;99.90
7240;DHT22;3661;53.288;10.458;2024-01-15T11:43:13;1.80;99.90
7240;DHT22;3661;53.288;10.458;2024-01-15T11:45:52;1.80;99.90
7240;DHT22;3661;53.288;10.458;2024-01-15T11:48:39;1.80;99.90
7240;DHT22;3661;53.288;10.458;2024-01-15T11:51:19;1.70;99.90
7240;DHT22;3661;53.288;10.458;2024-01-15T11:53:56;1.70;99.90
7240;DHT22;3661;53.288;10.458;2024-01-15T11:56:33;1.70;99.90
7240;DHT22;3661;53.288;10.458;2024-01-15T11:59:06;1.70;99.90
7240;DHT22;3661;53.288;10.458;2024-01-15T12:01:39;1.70;99.90
7240;DHT22;3661;53.288;10.458;2024-01-15T12:04:12;1.60;99.90
7240;DHT22;3661;53.288;10.458;2024-01-15T12:06:47;1.70;99.90
7240;DHT22;3661;53.288;10.458;2024-01-15T12:09:21;1.60;99.90
7240;DHT22;3661;53.288;10.458;2024-01-15T12:11:59;1.60;99.90
7240;DHT22;3661;53.288;10.458;2024-01-15T12:14:38;1.60;99.90
7240;DHT22;3661;53.288;10.458;2024-01-15T12:17:10;1.60;99.90
7240;DHT22;3661;53.288;10.458;2024-01-15T12:19:44;1.60;99.90
7240;DHT22;3661;53.288;10.458;2024-01-15T12:22:21;1.50;99.90
7240;DHT22;3661;53.288;10.458;2024-01-15T12:24:57;1.60;99.90
7240;DHT22;3661;53.288;10.458;2024-01-15T12:27:30;1.60;99.90
7240;DHT22;3661;53.288;10.458;2024-01-15T12:30:03;1.60;99.90
7240;DHT22;3661;53.288;10.458;2024-01-15T12:32:38;1.50;99.90
7240;DHT22;3661;53.288;10.458;2024-01-15T12:35:11;1.60;99.90
7240;DHT22;3661;53.288;10.458;2024-01-15T12:37:45;1.50;99.90
7240;DHT22;3661;53.288;10.458;2024-01-15T12:54:21;1.50;99.90
7240;DHT22;3661;53.288;10.458;2024-01-15T12:57:03;1.50;99.90
7240;DHT22;3661;53.288;10.458;2024-01-15T13:03:27;1.50;99.90
7240;DHT22;3661;53.288;10.458;2024-01-15T13:30:02;1.60;99.90
7240;DHT22;3661;53.288;10.458;2024-01-15T13:32:34;1.50;99.90
7240;DHT22;3661;53.288;10.458;2024-01-15T13:35:07;1.60;99.90
7240;DHT22;3661;53.288;10.458;2024-01-15T13:37:43;1.50;99.90
7240;DHT22;3661;53.288;10.458;2024-01-15T13:40:16;1.60;99.90
7240;DHT22;3661;53.288;10.458;2024-01-15T13:42:50;1.50;99.90
7240;DHT22;3661;53.288;10.458;2024-01-15T13:45:24;1.50;99.90
7240;DHT22;3661;53.288;10.458;2024-01-15T13:47:57;1.60;99.90
7240;DHT22;3661;53.288;10.458;2024-01-15T13:50:29;1.60;99.90
7240;DHT22;3661;53.288;10.458;2024-01-15T13:53:02;1.50;99.90
7240;DHT22;3661;53.288;10.458;2024-01-15T13:55:34;1.60;99.90
7240;DHT22;3661;53.288;10.458;2024-01-15T13:58:07;1.50;99.90
7240;DHT22;3661;53.288;10.458;2024-01-15T14:00:41;1.60;99.90
7240;DHT22;3661;53.288;10.458;2024-01-15T14:03:13;1.50;99.90
7240;DHT22;3661;53.288;10.458;2024-01-15T14:05:45;1.50;99.90
7240;DHT22;3661;53.288;10.458;2024-01-15T14:08:18;1.50;99.90
7240;DHT22;3661;53.288;10.458;2024-01-15T14:10:50;1.50;99.90
7240;DHT22;3661;53.288;10.458;2024-01-15T14:13:22;1.50;99.90
7240;DHT22;3661;53.288;10.458;2024-01-15T14:15:56;1.50;99.90
7240;DHT22;3661;53.288;10.458;2024-01-15T14:18:28;1.50;99.90
7240;DHT22;3661;53.288;10.458;2024-01-15T14:21:00;1.50;99.90
7240;DHT22;3661;53.288;10.458;2024-01-15T14:23:33;1.50;99.90
7240;DHT22;3661;53.288;10.458;2024-01-15T14:26:05;1.50;99.90
7240;DHT22;3661;53.288;10.458;2024-01-15T14:28:37;1.50;99.90
7240;DHT22;3661;53.288;10.458;2024-01-15T14:39:11;1.50;99.90
7240;DHT22;3661;53.288;10.458;2024-01-15T14:41:43;1.50;99.90
7240;DHT22;3661;53.288;10.458;2024-01-15T14:44:15;1.50;99.90
7240;DHT22;3661;53.288;10.458;2024-01-15T14:46:48;1.50;99.90
7240;DHT22;3661;53.288;10.458;2024-01-15T14:49:20;1.50;99.90
7240;DHT22;3661;53.288;10.458;2024-01-15T14:51:52;1.50;99.90
7240;DHT22;3661;53.288;10.458;2024-01-15T14:57:54;1.40;99.90
7240;DHT22;3661;53.288;10.458;2024-01-15T15:03:53;1.40;99.90
7240;DHT22;3661;53.288;10.458;2024-01-15T15:09:52;1.40;99.90
7240;DHT22;3661;53.288;10.458;2024-01-15T15:33:08;1.30;99.90
7240;DHT22;3661;53.288;10.458;2024-01-15T15:39:07;1.30;99.90
7240;DHT22;3661;53.288;10.458;2024-01-15T15:42:16;1.30;99.90
7240;DHT22;3661;53.288;10.458;2024-01-15T15:48:17;1.30;99.90
7240;DHT22;3661;53.288;10.458;2024-01-15T15:54:16;1.20;99.90
7240;DHT22;3661;53.288;10.458;2024-01-15T16:10:39;1.10;99.90
7240;DHT22;3661;53.288;10.458;2024-01-15T16:26:58;1.10;99.90
7240;DHT22;3661;53.288;10.458;2024-01-15T16:47:10;1.00;99.90
7240;DHT22;3661;53.288;10.458;2024-01-15T16:53:10;1.00;99.90
7240;DHT22;3661;53.288;10.458;2024-01-15T16:59:09;1.00;99.90
7240;DHT22;3661;53.288;10.458;2024-01-15T17:05:10;1.00;99.90
7240;DHT22;3661;53.288;10.458;2024-01-15T17:11:09;1.00;99.90
7240;DHT22;3661;53.288;10.458;2024-01-15T17:13:41;1.00;99.90
7240;DHT22;3661;53.288;10.458;2024-01-15T17:16:13;1.00;99.90
7240;DHT22;3661;53.288;10.458;2024-01-15T17:18:45;1.00;99.90
7240;DHT22;3661;53.288;10.458;2024-01-15T17:21:19;1.00;99.90
7240;DHT22;3661;53.288;10.458;2024-01-15T17:23:51;1.00;99.90
7240;DHT22;3661;53.288;10.458;2024-01-15T17:26:23;1.00;99.90
7240;DHT22;3661;53.288;10.458;2024-01-15T17:28:56;1.00;99.90
7240;DHT22;3661;53.288;10.458;2024-01-15T17:31:28;1.00;99.90
7240;DHT22;3661;53.288;10.458;2024-01-15T17:34:00;1.00;99.90
7240;DHT22;3661;53.288;10.458;2024-01-15T17:36:35;1.00;99.90
7240;DHT22;3661;53.288;10.458;2024-01-15T17:39:07;1.00;99.90
7240;DHT22;3661;53.288;10.458;2024-01-15T17:41:40;1.00;99.90
7240;DHT22;3661;53.288;10.458;2024-01-15T17:44:12;1.00;99.90
7240;DHT22;3661;53.288;10.458;2024-01-15T17:46:44;1.00;99.90
7240;DHT22;3661;53.288;10.458;2024-01-15T17:49:16;0.90;99.90
7240;DHT22;3661;53.288;10.458;2024-01-15T17:51:50;0.90;99.90
7240;DHT22;3661;53.288;10.458;2024-01-15T17:54:23;0.90;99.90
7240;DHT22;3661;53.288;10.458;2024-01-15T17:56:55;0.90;99.90
7240;DHT22;3661;53.288;10.458;2024-01-15T17:59:28;0.90;99.90
7240;DHT22;3661;53.288;10.458;2024-01-15T18:02:00;0.90;99.90
7240;DHT22;3661;53.288;10.458;2024-01-15T18:04:32;0.90;99.90
7240;DHT22;3661;53.288;10.458;2024-01-15T18:07:06;0.90;99.90
7240;DHT22;3661;53.288;10.458;2024-01-15T18:09:38;0.80;99.90
7240;DHT22;3661;53.288;10.458;2024-01-15T18:12:10;0.80;99.90
7240;DHT22;3661;53.288;10.458;2024-01-15T18:14:42;0.80;99.90
7240;DHT22;3661;53.288;10.458;2024-01-15T18:17:15;0.80;99.90
7240;DHT22;3661;53.288;10.458;2024-01-15T18:19:47;0.80;99.90
7240;DHT22;3661;53.288;10.458;2024-01-15T18:22:20;0.80;99.90
7240;DHT22;3661;53.288;10.458;2024-01-15T18:24:53;0.80;99.90
7240;DHT22;3661;53.288;10.458;2024-01-15T18:27:25;0.80;99.90
7240;DHT22;3661;53.288;10.458;2024-01-15T18:29:58;0.80;99.90
7240;DHT22;3661;53.288;10.458;2024-01-15T18:32:31;0.80;99.90
7240;DHT22;3661;53.288;10.458;2024-01-15T18:35:03;0.80;99.90
7240;DHT22;3661;53.288;10.458;2024-01-15T18:37:39;0.80;99.90
7240;DHT22;3661;53.288;10.458;2024-01-15T18:40:17;0.80;99.90
7240;DHT22;3661;53.288;10.458;2024-01-15T18:42:51;0.70;99.90
7240;DHT22;3661;53.288;10.458;2024-01-15T18:45:23;0.70;99.90
7240;DHT22;3661;53.288;10.458;2024-01-15T18:47:55;0.70;99.90
7240;DHT22;3661;53.288;10.458;2024-01-15T18:50:27;0.80;99.90
7240;DHT22;3661;53.288;10.458;2024-01-15T18:53:01;0.70;99.90
7240;DHT22;3661;53.288;10.458;2024-01-15T18:55:33;0.70;99.90
7240;DHT22;3661;53.288;10.458;2024-01-15T18:58:05;0.70;99.90
7240;DHT22;3661;53.288;10.458;2024-01-15T19:00:38;0.70;99.90
7240;DHT22;3661;53.288;10.458;2024-01-15T19:03:10;0.80;99.90
7240;DHT22;3661;53.288;10.458;2024-01-15T19:05:42;0.70;99.90
7240;DHT22;3661;53.288;10.458;2024-01-15T19:08:16;0.70;99.90
7240;DHT22;3661;53.288;10.458;2024-01-15T19:10:48;0.70;99.90
7240;DHT22;3661;53.288;10.458;2024-01-15T19:13:20;0.70;99.90